Terminal Aerodrome Forecast
Issued by NWS

Home | Current Version | Previous Version | Text Only | Print | Product List | Glossary On
Versions: 1 2 3 4 5 6 7 8 9 10 11 12 13 14
000
FTUS45 KRIW 281500 AAB
TAFBPI
TAF AMD
KBPI 281515Z 2815/2912 VRB05KT P6SM VCSH SCT003 SCT020 OVC040
      TEMPO 2815/2817 BKN007
     FM281800 33007KT P6SM SCT025 BKN050
     FM290000 34006KT P6SM SCT060
     FM290600 VRB05KT P6SM VCFG SCT005=

USA.gov is the U.S. government's official web portal to all federal, state and local government web resources and services.